Time;durP1;ratioP1;P1;durP2;ratioP2;P2;SDS_P1;SDS_P2;PMS_P1;PMS_P2;Temp;Humidity;BMP_temperature;BMP_pressure;BME280_temperature;BME280_humidity;BME280_pressure;Samples;Min_cycle;Max_cycle;Signal;HPM_P1;HPM_P2
2023/09/25 00:01:11;;;;;;;4.13;1.10;;;13.10;99.90;;;;;;5071996;28;20485;-65
2023/09/25 00:03:36;;;;;;;2.15;0.93;;;13.10;99.90;;;;;;5003592;28;20469;-65
2023/09/25 00:06:02;;;;;;;1.75;0.80;;;13.20;99.90;;;;;;5050762;28;20070;-64
2023/09/25 00:08:28;;;;;;;2.90;1.13;;;13.20;99.90;;;;;;5068975;28;20045;-64
2023/09/25 00:10:54;;;;;;;3.00;1.35;;;13.20;99.90;;;;;;5051943;28;20042;-64
2023/09/25 00:13:19;;;;;;;2.03;0.88;;;13.20;99.90;;;;;;5067691;28;20046;-64
2023/09/25 00:15:46;;;;;;;1.92;0.90;;;13.20;99.90;;;;;;5068265;28;20044;-65
2023/09/25 00:18:13;;;;;;;3.05;1.40;;;13.30;99.90;;;;;;5065437;28;20037;-65
2023/09/25 00:20:40;;;;;;;1.95;0.82;;;13.30;99.90;;;;;;5063198;28;20109;-65
2023/09/25 00:23:06;;;;;;;2.10;1.02;;;13.30;99.90;;;;;;5003341;28;20058;-64
2023/09/25 00:25:32;;;;;;;3.40;1.20;;;13.30;99.90;;;;;;5072123;28;20045;-64
2023/09/25 00:27:58;;;;;;;2.70;1.10;;;13.30;99.90;;;;;;5001071;28;20040;-64
2023/09/25 00:30:24;;;;;;;5.30;1.25;;;13.30;99.90;;;;;;4995182;28;20045;-64
2023/09/25 00:32:50;;;;;;;2.65;1.15;;;13.30;99.90;;;;;;4998399;28;20042;-64
2023/09/25 00:35:20;;;;;;;2.42;0.90;;;13.30;99.90;;;;;;5062907;28;20041;-64
2023/09/25 00:37:46;;;;;;;1.80;0.93;;;13.20;99.90;;;;;;5073858;28;20491;-64
2023/09/25 00:40:18;;;;;;;2.17;0.85;;;13.20;99.90;;;;;;4998813;28;20170;-64
2023/09/25 00:42:50;;;;;;;4.40;1.30;;;13.20;99.90;;;;;;5067369;28;20481;-65
2023/09/25 00:45:16;;;;;;;5.65;0.98;;;13.20;99.90;;;;;;4995498;28;20056;-65
2023/09/25 00:47:43;;;;;;;3.42;0.90;;;13.20;99.90;;;;;;5001327;28;20500;-65
2023/09/25 00:50:09;;;;;;;2.92;1.10;;;13.20;99.90;;;;;;4997581;28;20115;-65
2023/09/25 00:52:37;;;;;;;1.75;0.77;;;13.10;99.90;;;;;;5065407;28;20611;-65
2023/09/25 00:55:04;;;;;;;4.65;1.30;;;13.10;99.90;;;;;;5074160;28;20057;-65
2023/09/25 00:57:32;;;;;;;1.95;1.00;;;13.10;99.90;;;;;;5071008;28;20052;-65
2023/09/25 00:59:58;;;;;;;2.10;0.95;;;13.00;99.90;;;;;;5072185;28;20049;-65
2023/09/25 01:02:24;;;;;;;2.08;1.10;;;13.00;99.90;;;;;;5071585;28;20037;-65
2023/09/25 01:04:50;;;;;;;2.25;1.20;;;13.00;99.90;;;;;;5076502;28;20046;-65
2023/09/25 01:07:19;;;;;;;1.95;1.00;;;13.10;99.90;;;;;;5070494;28;20389;-65
2023/09/25 01:10:12;;;;;;;2.80;1.10;;;13.00;99.90;;;;;;5074419;28;20121;-65
2023/09/25 01:12:37;;;;;;;1.92;1.13;;;13.00;99.90;;;;;;5000986;28;20517;-65
2023/09/25 01:15:04;;;;;;;3.10;1.42;;;13.00;99.90;;;;;;5002965;28;20079;-65
2023/09/25 01:17:31;;;;;;;1.40;1.00;;;13.00;99.90;;;;;;5065832;28;20065;-65
2023/09/25 01:19:57;;;;;;;2.90;1.42;;;13.00;99.90;;;;;;5072708;28;20129;-65
2023/09/25 01:22:23;;;;;;;2.53;1.23;;;13.00;99.90;;;;;;5005218;28;20179;-65
2023/09/25 01:24:49;;;;;;;1.73;1.02;;;13.00;99.90;;;;;;5068822;28;20034;-64
2023/09/25 01:27:14;;;;;;;4.72;1.42;;;13.00;99.90;;;;;;4999908;28;20035;-64
2023/09/25 01:29:40;;;;;;;3.88;2.05;;;13.00;99.90;;;;;;5001972;28;20147;-64
2023/09/25 01:32:06;;;;;;;1.73;1.27;;;13.00;99.90;;;;;;5070693;28;20136;-65
2023/09/25 01:34:31;;;;;;;3.38;1.35;;;13.00;99.90;;;;;;5072166;28;20033;-64
2023/09/25 01:36:57;;;;;;;2.58;1.10;;;12.90;99.90;;;;;;5067624;28;20050;-64
2023/09/25 01:39:23;;;;;;;2.92;1.00;;;12.90;99.90;;;;;;5066515;28;20058;-64
2023/09/25 01:41:48;;;;;;;6.03;1.52;;;12.90;99.90;;;;;;5003121;28;20052;-64
2023/09/25 01:44:14;;;;;;;2.58;1.20;;;12.90;99.90;;;;;;5073681;28;20039;-64
2023/09/25 01:46:40;;;;;;;3.08;1.10;;;12.90;99.90;;;;;;4996915;28;20096;-64
2023/09/25 01:49:07;;;;;;;2.90;1.08;;;12.90;99.90;;;;;;5070289;28;20042;-64
2023/09/25 01:51:33;;;;;;;3.30;1.33;;;12.90;99.90;;;;;;5066940;28;20553;-65
2023/09/25 01:53:58;;;;;;;3.00;1.42;;;12.90;99.90;;;;;;5002194;28;20045;-64
2023/09/25 01:56:24;;;;;;;2.70;1.40;;;12.90;99.90;;;;;;5068702;28;20046;-64
2023/09/25 01:58:49;;;;;;;4.07;1.23;;;12.90;99.90;;;;;;5068467;28;20902;-64
2023/09/25 02:01:15;;;;;;;3.10;1.17;;;12.90;99.90;;;;;;5003579;28;20050;-64
2023/09/25 02:03:41;;;;;;;1.83;0.90;;;12.90;99.90;;;;;;5066926;28;20050;-64
2023/09/25 02:06:07;;;;;;;4.40;1.42;;;12.90;99.90;;;;;;5070115;28;20050;-64
2023/09/25 02:08:33;;;;;;;3.65;2.10;;;12.90;99.90;;;;;;5068691;28;20045;-64
2023/09/25 02:10:59;;;;;;;3.45;1.50;;;12.90;99.90;;;;;;5002006;28;20111;-64
2023/09/25 02:13:25;;;;;;;1.85;1.48;;;12.90;99.90;;;;;;5068921;28;20614;-64
2023/09/25 02:15:51;;;;;;;2.80;1.48;;;12.90;99.90;;;;;;5069719;28;20136;-65
2023/09/25 02:18:17;;;;;;;3.10;1.45;;;12.90;99.90;;;;;;5074244;28;20041;-65
2023/09/25 02:20:43;;;;;;;3.83;1.60;;;12.90;99.90;;;;;;5068325;28;20103;-65
2023/09/25 02:23:08;;;;;;;3.47;1.20;;;13.20;99.90;;;;;;5067848;28;20506;-65
2023/09/25 02:25:34;;;;;;;2.72;1.67;;;12.90;99.90;;;;;;5068174;28;20034;-65
2023/09/25 02:27:59;;;;;;;2.50;1.35;;;12.90;99.90;;;;;;5075264;28;20120;-64
2023/09/25 02:30:25;;;;;;;1.50;1.10;;;13.00;99.90;;;;;;5001259;28;20496;-64
2023/09/25 02:32:50;;;;;;;2.30;1.38;;;13.00;99.90;;;;;;5067197;28;20424;-64
2023/09/25 02:35:16;;;;;;;2.55;1.50;;;13.00;99.90;;;;;;4999920;28;20120;-64
2023/09/25 02:37:44;;;;;;;1.85;1.38;;;13.00;99.90;;;;;;5065827;28;20074;-64
2023/09/25 02:40:13;;;;;;;1.67;1.50;;;12.90;99.90;;;;;;5065479;28;20038;-64
2023/09/25 02:42:42;;;;;;;2.05;1.25;;;12.90;99.90;;;;;;5052753;28;20082;-64
2023/09/25 02:45:08;;;;;;;2.13;1.40;;;12.90;99.90;;;;;;5075658;28;20044;-64
2023/09/25 02:47:34;;;;;;;2.60;1.10;;;12.90;99.90;;;;;;5066306;28;20042;-64
2023/09/25 02:50:01;;;;;;;2.28;1.50;;;12.90;99.90;;;;;;5066474;28;20103;-65
2023/09/25 02:52:26;;;;;;;2.55;1.55;;;12.90;99.90;;;;;;5065223;28;20081;-65
2023/09/25 02:54:52;;;;;;;3.95;1.40;;;12.90;99.90;;;;;;5080891;28;20081;-65
2023/09/25 02:57:18;;;;;;;2.30;1.48;;;12.90;99.90;;;;;;4999700;28;20098;-65
2023/09/25 02:59:43;;;;;;;3.13;2.10;;;12.90;99.90;;;;;;5047615;28;20058;-65
2023/09/25 03:02:09;;;;;;;3.72;1.45;;;12.90;99.90;;;;;;5067488;28;20480;-65
2023/09/25 03:04:34;;;;;;;2.72;1.60;;;12.80;99.90;;;;;;5067880;28;20055;-65
2023/09/25 03:07:00;;;;;;;3.67;1.30;;;12.80;99.90;;;;;;5068283;28;20046;-65
2023/09/25 03:09:26;;;;;;;2.92;1.63;;;12.80;99.90;;;;;;5064234;28;20527;-64
2023/09/25 03:11:51;;;;;;;3.38;1.33;;;12.80;99.90;;;;;;5069538;28;20058;-64
2023/09/25 03:14:17;;;;;;;2.00;1.52;;;12.80;99.90;;;;;;5002336;28;20045;-64
2023/09/25 03:16:42;;;;;;;1.65;1.50;;;12.80;99.90;;;;;;5068561;28;20046;-64
2023/09/25 03:19:08;;;;;;;1.88;1.23;;;12.70;99.90;;;;;;5003953;28;20084;-64
2023/09/25 03:21:34;;;;;;;2.22;1.60;;;12.70;99.90;;;;;;5000255;28;20034;-64
2023/09/25 03:23:59;;;;;;;3.85;1.65;;;12.70;99.90;;;;;;5066536;28;20068;-64
2023/09/25 03:26:25;;;;;;;2.38;1.40;;;12.70;99.90;;;;;;4999268;28;20072;-64
2023/09/25 03:28:50;;;;;;;4.70;1.85;;;12.70;99.90;;;;;;5073333;28;20140;-64
2023/09/25 03:31:16;;;;;;;2.95;1.50;;;12.60;99.90;;;;;;5002052;28;20040;-64
2023/09/25 03:33:46;;;;;;;2.30;1.70;;;12.60;99.90;;;;;;5000319;28;20194;-64
2023/09/25 03:36:12;;;;;;;3.17;1.70;;;12.60;99.90;;;;;;5000139;28;20452;-64
2023/09/25 03:38:37;;;;;;;2.42;1.77;;;12.50;99.90;;;;;;5065290;28;20117;-64
2023/09/25 03:41:03;;;;;;;2.75;1.80;;;12.70;99.90;;;;;;4995267;28;20468;-64
2023/09/25 03:43:29;;;;;;;2.50;2.00;;;12.60;99.90;;;;;;4997027;28;20057;-64
2023/09/25 03:45:55;;;;;;;5.93;1.83;;;12.60;99.90;;;;;;5064462;28;20034;-64
2023/09/25 03:48:20;;;;;;;2.58;1.55;;;12.60;99.90;;;;;;5063240;28;20495;-64
2023/09/25 03:50:46;;;;;;;3.85;2.00;;;12.60;99.90;;;;;;4999405;28;20454;-64
2023/09/25 03:53:11;;;;;;;3.05;1.58;;;12.50;99.90;;;;;;5066228;28;20054;-64
2023/09/25 03:55:40;;;;;;;4.65;2.17;;;12.60;99.90;;;;;;5065570;28;20124;-64
2023/09/25 03:58:06;;;;;;;4.32;1.75;;;12.50;99.90;;;;;;5000031;28;20042;-64
2023/09/25 04:00:32;;;;;;;1.83;1.50;;;12.60;99.90;;;;;;5067767;28;20507;-64
2023/09/25 04:02:57;;;;;;;5.57;1.77;;;12.50;99.90;;;;;;5070574;28;20038;-64
2023/09/25 04:05:24;;;;;;;4.38;1.40;;;12.60;99.90;;;;;;5078570;28;20432;-64
2023/09/25 04:07:49;;;;;;;2.70;1.50;;;12.60;99.90;;;;;;5072633;28;20041;-64
2023/09/25 04:10:15;;;;;;;1.98;1.70;;;12.60;99.90;;;;;;5064121;28;20492;-64
2023/09/25 04:12:40;;;;;;;4.30;1.60;;;12.60;99.90;;;;;;4999477;28;20407;-64
2023/09/25 04:15:13;;;;;;;3.92;1.30;;;12.60;99.90;;;;;;5074249;28;20046;-64
2023/09/25 04:17:42;;;;;;;3.15;1.70;;;12.60;99.90;;;;;;5068647;28;20121;-64
2023/09/25 04:20:14;;;;;;;2.85;1.77;;;12.60;99.90;;;;;;5065473;28;20103;-64
2023/09/25 04:22:40;;;;;;;2.13;1.60;;;12.60;99.90;;;;;;5070761;28;20121;-64
2023/09/25 04:25:09;;;;;;;3.22;1.75;;;12.60;99.90;;;;;;5068916;28;20048;-64
2023/09/25 04:27:38;;;;;;;4.00;2.22;;;12.60;99.90;;;;;;5071783;28;20103;-64
2023/09/25 04:30:04;;;;;;;3.42;1.80;;;12.60;99.90;;;;;;5068385;28;20069;-64
2023/09/25 04:32:29;;;;;;;3.42;2.03;;;12.60;99.90;;;;;;5064065;28;20478;-64
2023/09/25 04:34:55;;;;;;;2.72;2.10;;;12.60;99.90;;;;;;5002613;28;20045;-64
2023/09/25 04:37:20;;;;;;;4.22;1.77;;;12.60;99.90;;;;;;5001721;28;20091;-64
2023/09/25 04:39:46;;;;;;;2.72;1.85;;;12.60;99.90;;;;;;5069208;28;20039;-64
2023/09/25 04:42:12;;;;;;;3.13;2.30;;;12.60;99.90;;;;;;5068722;28;20451;-64
2023/09/25 04:44:39;;;;;;;4.45;2.20;;;12.60;99.90;;;;;;4997805;28;20048;-64
2023/09/25 04:47:04;;;;;;;4.20;2.42;;;12.50;99.90;;;;;;5065575;28;20038;-64
2023/09/25 04:49:30;;;;;;;3.05;1.88;;;12.60;99.90;;;;;;4994897;28;20083;-64
2023/09/25 04:51:56;;;;;;;3.35;1.88;;;12.50;99.90;;;;;;5066371;28;20061;-64
2023/09/25 04:54:21;;;;;;;4.15;1.92;;;12.50;99.90;;;;;;5000895;28;20454;-64
2023/09/25 04:56:47;;;;;;;1.90;1.73;;;12.50;99.90;;;;;;5071026;28;20491;-64
2023/09/25 04:59:13;;;;;;;3.88;1.83;;;12.50;99.90;;;;;;5067852;28;20038;-64
2023/09/25 05:01:39;;;;;;;3.38;1.85;;;12.50;99.90;;;;;;5069719;28;20979;-64
2023/09/25 05:04:05;;;;;;;3.42;1.92;;;12.50;99.90;;;;;;5066173;28;20138;-64
2023/09/25 05:06:31;;;;;;;3.28;1.88;;;12.50;99.90;;;;;;5069724;28;20042;-64
2023/09/25 05:08:57;;;;;;;3.50;1.85;;;12.50;99.90;;;;;;4998855;28;20111;-64
2023/09/25 05:11:22;;;;;;;2.72;1.80;;;12.50;99.90;;;;;;5070270;28;20047;-64
2023/09/25 05:13:49;;;;;;;7.50;1.70;;;12.50;99.90;;;;;;5068421;28;20064;-65
2023/09/25 05:16:15;;;;;;;4.43;1.60;;;12.50;99.90;;;;;;4999616;28;20037;-65
2023/09/25 05:18:41;;;;;;;3.10;1.60;;;12.50;99.90;;;;;;5067099;28;20492;-65
2023/09/25 05:21:06;;;;;;;4.28;2.00;;;12.60;99.90;;;;;;5065724;28;20114;-65
2023/09/25 05:23:32;;;;;;;3.33;1.92;;;12.60;99.90;;;;;;5065954;28;20530;-65
2023/09/25 05:25:58;;;;;;;2.33;1.80;;;12.60;99.90;;;;;;5065828;28;20445;-64
2023/09/25 05:28:24;;;;;;;2.88;1.83;;;12.60;99.90;;;;;;5066822;28;20776;-65
2023/09/25 05:30:53;;;;;;;4.28;1.60;;;12.60;99.90;;;;;;5069118;28;20054;-65
2023/09/25 05:33:20;;;;;;;6.60;2.22;;;12.60;99.90;;;;;;5062798;28;20056;-64
2023/09/25 05:35:47;;;;;;;5.22;2.00;;;12.60;99.90;;;;;;5064726;28;20087;-64
2023/09/25 05:38:13;;;;;;;5.53;2.50;;;12.60;99.90;;;;;;5070790;28;20103;-64
2023/09/25 05:40:38;;;;;;;3.10;1.85;;;12.70;99.90;;;;;;5061045;28;20054;-64
2023/09/25 05:43:04;;;;;;;4.10;1.73;;;12.70;99.90;;;;;;4996669;28;20049;-65
2023/09/25 05:45:31;;;;;;;3.40;1.85;;;12.60;99.90;;;;;;5065104;28;20038;-64
2023/09/25 05:47:57;;;;;;;2.08;1.48;;;12.70;99.90;;;;;;4997480;28;20050;-64
2023/09/25 05:50:25;;;;;;;3.03;1.60;;;12.70;99.90;;;;;;4999536;28;20065;-64
2023/09/25 05:52:51;;;;;;;2.55;1.65;;;12.70;99.90;;;;;;5068639;28;20077;-64
2023/09/25 05:55:16;;;;;;;2.85;2.00;;;12.80;99.90;;;;;;5066911;28;20084;-64
2023/09/25 05:57:42;;;;;;;4.63;2.20;;;12.80;99.90;;;;;;5066554;28;20107;-64
2023/09/25 06:00:14;;;;;;;2.55;1.60;;;12.80;99.90;;;;;;5065090;28;20415;-64
2023/09/25 06:02:41;;;;;;;4.28;1.70;;;12.90;99.90;;;;;;5067360;28;20042;-64
2023/09/25 06:05:07;;;;;;;2.17;1.63;;;12.90;99.90;;;;;;5002526;28;20046;-64
2023/09/25 06:07:35;;;;;;;2.78;1.35;;;13.00;99.90;;;;;;5068521;28;20069;-64
2023/09/25 06:10:04;;;;;;;4.90;1.42;;;13.00;99.90;;;;;;5064492;28;20156;-65
2023/09/25 06:12:29;;;;;;;2.63;2.05;;;13.00;99.90;;;;;;5070990;28;20099;-65
2023/09/25 06:14:55;;;;;;;2.45;1.77;;;13.20;99.90;;;;;;5003854;28;20042;-65
2023/09/25 06:17:21;;;;;;;4.20;2.08;;;13.20;99.90;;;;;;4999311;28;20496;-65
2023/09/25 06:19:46;;;;;;;2.88;1.65;;;13.30;99.90;;;;;;5080583;28;20502;-65
2023/09/25 06:22:12;;;;;;;4.97;1.70;;;13.30;99.90;;;;;;5001927;28;20527;-65
2023/09/25 06:24:37;;;;;;;4.63;1.98;;;13.40;99.90;;;;;;5069831;28;20034;-65
2023/09/25 06:27:04;;;;;;;4.95;2.03;;;13.40;99.90;;;;;;5051617;28;20104;-65
2023/09/25 06:29:31;;;;;;;4.20;1.80;;;13.40;99.90;;;;;;5066539;28;20054;-65
2023/09/25 06:31:57;;;;;;;3.17;1.75;;;13.50;99.90;;;;;;4997873;28;20054;-65
2023/09/25 06:34:22;;;;;;;5.55;1.67;;;13.50;99.90;;;;;;5065781;28;20502;-65
2023/09/25 06:36:48;;;;;;;3.13;1.70;;;13.60;99.90;;;;;;5069173;28;20064;-65
2023/09/25 06:39:13;;;;;;;6.35;2.05;;;13.70;99.90;;;;;;5000165;28;20083;-65
2023/09/25 06:41:39;;;;;;;7.38;2.92;;;13.90;99.90;;;;;;5073231;28;20047;-65
2023/09/25 06:44:06;;;;;;;8.38;1.80;;;14.00;99.90;;;;;;5068333;28;20094;-65
2023/09/25 06:46:35;;;;;;;2.40;1.42;;;14.00;99.90;;;;;;5067029;28;20125;-65
2023/09/25 06:49:01;;;;;;;4.40;1.70;;;14.00;99.90;;;;;;5066780;28;20070;-65
2023/09/25 06:51:31;;;;;;;8.88;2.08;;;14.00;99.90;;;;;;5069469;28;20479;-65
2023/09/25 06:53:57;;;;;;;6.88;2.10;;;14.10;99.90;;;;;;4997593;28;20042;-65
2023/09/25 06:56:23;;;;;;;6.30;1.80;;;14.10;99.90;;;;;;5000410;28;20074;-65
2023/09/25 06:58:48;;;;;;;3.03;1.98;;;14.10;99.90;;;;;;4998086;28;20037;-65
2023/09/25 07:01:14;;;;;;;4.30;2.05;;;14.20;99.90;;;;;;5001252;28;20034;-65
2023/09/25 07:03:40;;;;;;;5.35;2.25;;;14.10;99.90;;;;;;5066457;28;20042;-65
2023/09/25 07:06:05;;;;;;;4.68;1.83;;;14.10;99.90;;;;;;5066330;28;20514;-65
2023/09/25 07:08:32;;;;;;;3.30;1.73;;;14.10;99.90;;;;;;5067218;28;20046;-65
2023/09/25 07:11:00;;;;;;;6.47;1.80;;;14.10;99.90;;;;;;5065816;28;20074;-65
2023/09/25 07:13:27;;;;;;;3.05;1.50;;;14.20;99.90;;;;;;5067693;28;20042;-65
2023/09/25 07:16:02;;;;;;;4.75;1.50;;;14.20;99.90;;;;;;5073554;28;20041;-65
2023/09/25 07:18:29;;;;;;;4.40;1.60;;;14.30;99.90;;;;;;5068092;28;20090;-65
2023/09/25 07:20:54;;;;;;;3.38;1.75;;;14.20;99.90;;;;;;5066778;28;20053;-65
2023/09/25 07:23:20;;;;;;;4.65;1.90;;;14.30;99.90;;;;;;5069122;28;20057;-65
2023/09/25 07:25:45;;;;;;;2.63;1.27;;;14.30;99.90;;;;;;5068911;28;20045;-65
2023/09/25 07:28:11;;;;;;;3.63;2.05;;;14.30;99.90;;;;;;5061063;28;20610;-65
2023/09/25 07:30:43;;;;;;;4.45;1.70;;;14.40;99.90;;;;;;4998610;28;20498;-65
2023/09/25 07:33:08;;;;;;;4.78;2.30;;;14.40;99.90;;;;;;5067419;28;20053;-65
2023/09/25 07:35:34;;;;;;;3.13;1.80;;;14.50;99.90;;;;;;5066900;28;20049;-65
2023/09/25 07:38:00;;;;;;;4.32;1.90;;;14.40;99.90;;;;;;5065603;28;20065;-65
2023/09/25 07:40:26;;;;;;;4.28;1.95;;;14.40;99.90;;;;;;5064976;28;20140;-65
2023/09/25 07:42:52;;;;;;;2.15;1.40;;;14.60;99.90;;;;;;5070551;28;20092;-65
2023/09/25 07:45:22;;;;;;;1.73;1.30;;;14.60;99.90;;;;;;4998975;28;20699;-65
2023/09/25 07:47:48;;;;;;;3.40;2.00;;;14.60;99.90;;;;;;4998380;28;20127;-65
2023/09/25 07:50:14;;;;;;;4.22;1.67;;;14.60;99.90;;;;;;5064331;28;20159;-65
2023/09/25 07:52:41;;;;;;;2.60;1.80;;;14.70;99.90;;;;;;5063893;28;20128;-65
2023/09/25 07:55:10;;;;;;;3.65;1.60;;;14.70;99.90;;;;;;5063344;28;20046;-65
2023/09/25 07:57:39;;;;;;;3.08;1.50;;;14.80;99.90;;;;;;4997782;28;20095;-65
2023/09/25 08:01:00;;;;;;;4.32;1.67;;;14.90;99.90;;;;;;5065638;28;20135;-65
2023/09/25 08:02:58;;;;;;;2.88;1.70;;;14.90;99.90;;;;;;5046380;28;20054;-65
2023/09/25 08:05:23;;;;;;;3.65;1.98;;;15.10;99.90;;;;;;5070274;28;20049;-65
2023/09/25 08:07:50;;;;;;;4.10;1.42;;;15.10;99.90;;;;;;5000216;28;20049;-65
2023/09/25 08:10:17;;;;;;;4.15;2.20;;;15.10;99.90;;;;;;5065970;28;20122;-65
2023/09/25 08:12:44;;;;;;;3.95;1.58;;;15.10;99.90;;;;;;5001981;28;20120;-65
2023/09/25 08:15:10;;;;;;;7.25;2.28;;;15.20;99.90;;;;;;5068956;28;20054;-65
2023/09/25 08:17:37;;;;;;;3.28;1.88;;;15.20;99.90;;;;;;5000687;28;20034;-65
2023/09/25 08:20:13;;;;;;;3.80;1.95;;;15.30;99.90;;;;;;5066374;28;20053;-65
2023/09/25 08:22:42;;;;;;;4.82;2.05;;;15.30;99.90;;;;;;5063467;28;20506;-65
2023/09/25 08:25:09;;;;;;;2.65;1.52;;;15.30;99.90;;;;;;5000407;28;20040;-65
2023/09/25 08:27:38;;;;;;;3.58;1.52;;;15.40;99.90;;;;;;5000900;28;20103;-65
2023/09/25 08:30:06;;;;;;;3.85;1.30;;;15.40;99.90;;;;;;4995957;28;20049;-65
2023/09/25 08:32:32;;;;;;;4.90;1.65;;;15.50;99.90;;;;;;4998398;28;20116;-65
2023/09/25 08:34:58;;;;;;;3.67;1.60;;;15.60;99.90;;;;;;5065434;28;20050;-65
2023/09/25 08:37:27;;;;;;;4.53;2.08;;;15.70;99.90;;;;;;5066652;28;20034;-65
2023/09/25 08:39:54;;;;;;;5.97;1.73;;;15.80;99.90;;;;;;4999194;28;20476;-65
2023/09/25 08:42:24;;;;;;;4.78;1.77;;;15.90;99.90;;;;;;5074316;28;20087;-65
2023/09/25 08:44:51;;;;;;;2.55;1.50;;;16.00;99.90;;;;;;5000585;28;20030;-65
2023/09/25 08:47:21;;;;;;;8.02;1.60;;;16.10;99.90;;;;;;5066352;28;20117;-65
2023/09/25 08:49:52;;;;;;;6.72;2.03;;;16.20;99.90;;;;;;5065175;28;20078;-65
2023/09/25 08:52:19;;;;;;;2.50;0.98;;;16.40;99.90;;;;;;5066398;28;20056;-65
2023/09/25 08:54:46;;;;;;;1.67;1.08;;;16.60;99.90;;;;;;5063120;28;20079;-65
2023/09/25 08:57:12;;;;;;;4.30;1.20;;;16.70;99.90;;;;;;5060720;28;20042;-65
2023/09/25 08:59:39;;;;;;;3.22;1.35;;;16.80;99.90;;;;;;5061943;28;20057;-65
2023/09/25 09:02:08;;;;;;;2.05;1.30;;;16.90;99.90;;;;;;4990930;28;20041;-65
2023/09/25 09:04:37;;;;;;;2.50;1.40;;;16.90;99.90;;;;;;5052758;28;20376;-65
2023/09/25 09:07:05;;;;;;;1.80;1.45;;;17.00;99.90;;;;;;5000814;28;20039;-65
2023/09/25 09:09:34;;;;;;;4.15;1.50;;;17.10;99.90;;;;;;4998700;28;20102;-65
2023/09/25 09:12:00;;;;;;;2.20;1.20;;;17.20;99.90;;;;;;5056385;28;20050;-65
2023/09/25 09:14:36;;;;;;;2.97;1.20;;;17.20;99.90;;;;;;5067109;28;20491;-65
2023/09/25 09:17:04;;;;;;;4.22;0.95;;;17.30;99.90;;;;;;5003053;28;20037;-65
2023/09/25 09:19:48;;;;;;;3.08;1.08;;;17.40;99.90;;;;;;5070024;28;20042;-65
2023/09/25 09:22:16;;;;;;;2.20;1.30;;;17.50;99.90;;;;;;5002284;28;20041;-65
2023/09/25 09:24:43;;;;;;;2.60;1.52;;;17.60;99.90;;;;;;5068126;28;20045;-65
2023/09/25 09:27:09;;;;;;;7.00;1.88;;;17.70;99.90;;;;;;5072757;28;20041;-65
2023/09/25 09:29:37;;;;;;;2.97;1.42;;;17.70;99.90;;;;;;5069144;28;20115;-65
2023/09/25 09:32:03;;;;;;;1.63;1.05;;;17.80;99.90;;;;;;5071665;28;20090;-65
2023/09/25 09:34:30;;;;;;;2.03;1.50;;;17.80;99.90;;;;;;5073430;28;20039;-65
2023/09/25 09:36:55;;;;;;;2.22;1.45;;;17.80;99.90;;;;;;5068807;28;20033;-65
2023/09/25 09:39:25;;;;;;;3.00;1.23;;;17.80;99.90;;;;;;4998715;28;20068;-65
2023/09/25 09:41:52;;;;;;;4.70;1.35;;;17.90;99.90;;;;;;5002180;28;20935;-65
2023/09/25 09:44:18;;;;;;;1.95;0.95;;;17.90;99.90;;;;;;5071925;28;20042;-65
2023/09/25 09:46:46;;;;;;;2.97;1.40;;;18.10;99.90;;;;;;4997442;28;20063;-65
2023/09/25 09:49:15;;;;;;;2.35;1.75;;;18.20;99.90;;;;;;4998005;28;20038;-65
2023/09/25 09:51:45;;;;;;;6.20;1.55;;;18.30;99.90;;;;;;5067305;28;20054;-65
2023/09/25 09:54:12;;;;;;;3.83;1.10;;;18.40;99.90;;;;;;5067993;28;20096;-66
2023/09/25 09:56:39;;;;;;;3.88;1.70;;;18.50;99.90;;;;;;4998100;28;20467;-66
2023/09/25 09:59:06;;;;;;;2.65;1.52;;;18.60;99.90;;;;;;5063281;28;20132;-66
2023/09/25 10:01:33;;;;;;;3.90;1.30;;;18.70;99.90;;;;;;5001461;28;20053;-65
2023/09/25 10:04:03;;;;;;;3.33;1.27;;;18.70;99.90;;;;;;5072901;28;20754;-65
2023/09/25 10:06:29;;;;;;;1.67;1.20;;;18.90;99.90;;;;;;5056788;28;20048;-65
2023/09/25 10:09:06;;;;;;;2.65;1.42;;;19.10;99.90;;;;;;5063729;28;20042;-65
2023/09/25 10:11:32;;;;;;;3.92;1.80;;;19.20;99.90;;;;;;5067324;28;20046;-65
2023/09/25 10:14:05;;;;;;;3.03;1.65;;;19.30;99.90;;;;;;5066480;28;20526;-65
2023/09/25 10:22:18;;;;;;;2.90;1.48;;;19.50;99.90;;;;;;4993642;28;20047;-65
2023/09/25 10:24:46;;;;;;;5.13;1.40;;;19.60;99.90;;;;;;5063314;28;20066;-65
2023/09/25 10:27:15;;;;;;;3.58;1.35;;;19.80;99.90;;;;;;4998916;28;20097;-65
2023/09/25 10:30:01;;;;;;;1.83;0.98;;;19.80;99.90;;;;;;5060521;28;20049;-65
2023/09/25 10:32:31;;;;;;;1.75;0.95;;;20.00;99.90;;;;;;5064148;28;20076;-65
2023/09/25 10:34:56;;;;;;;5.03;1.20;;;20.00;99.90;;;;;;4994927;28;20057;-66
2023/09/25 10:37:22;;;;;;;3.80;1.27;;;20.10;99.90;;;;;;4998739;28;20060;-66
2023/09/25 10:39:56;;;;;;;6.95;1.30;;;20.10;99.90;;;;;;5062379;28;20402;-66
2023/09/25 10:42:22;;;;;;;2.58;1.20;;;20.10;99.90;;;;;;5064705;28;20110;-66
2023/09/25 10:44:48;;;;;;;1.70;0.95;;;20.20;99.90;;;;;;5065413;28;20456;-66
2023/09/25 10:47:14;;;;;;;2.85;1.15;;;20.40;99.90;;;;;;5063986;28;20052;-66
2023/09/25 10:49:39;;;;;;;3.88;1.33;;;20.40;99.90;;;;;;4993478;28;20050;-66
2023/09/25 10:52:05;;;;;;;1.35;0.90;;;20.70;99.90;;;;;;4993726;28;20058;-65
2023/09/25 10:54:31;;;;;;;1.90;0.75;;;20.80;99.90;;;;;;5062860;28;20570;-67
2023/09/25 10:56:59;;;;;;;2.30;0.98;;;20.80;99.90;;;;;;5067548;28;20346;-66
2023/09/25 10:59:25;;;;;;;3.13;0.95;;;20.80;99.90;;;;;;5053103;28;20099;-66
2023/09/25 11:01:51;;;;;;;5.65;1.00;;;21.00;99.90;;;;;;5047801;28;20100;-66
2023/09/25 11:04:17;;;;;;;2.65;1.50;;;21.10;99.90;;;;;;5063046;28;20276;-66
2023/09/25 11:06:43;;;;;;;3.75;1.45;;;21.10;99.90;;;;;;4997894;28;20046;-66
2023/09/25 11:09:13;;;;;;;1.73;1.20;;;21.30;99.90;;;;;;5063786;28;20071;-66
2023/09/25 11:11:40;;;;;;;3.33;1.20;;;21.40;99.90;;;;;;4999179;28;20049;-66
2023/09/25 11:14:06;;;;;;;5.72;1.40;;;21.40;99.90;;;;;;5050788;28;20042;-66
2023/09/25 11:16:33;;;;;;;5.25;1.70;;;21.50;99.90;;;;;;5004005;28;20045;-66
2023/09/25 11:19:21;;;;;;;1.58;1.00;;;21.60;99.90;;;;;;4999927;28;20077;-66
2023/09/25 11:21:47;;;;;;;2.22;1.10;;;21.60;99.90;;;;;;5065396;28;20135;-66
2023/09/25 11:24:13;;;;;;;3.25;1.20;;;21.70;99.90;;;;;;4999225;28;20054;-66
2023/09/25 11:26:41;;;;;;;3.50;0.93;;;21.70;99.90;;;;;;5067208;28;20049;-66
2023/09/25 11:29:11;;;;;;;8.23;1.38;;;21.70;99.90;;;;;;4997505;28;20038;-66
2023/09/25 11:31:38;;;;;;;2.10;1.10;;;21.80;99.90;;;;;;4999699;28;20045;-66
2023/09/25 11:34:07;;;;;;;2.72;1.13;;;21.90;99.90;;;;;;5064483;28;20038;-66
2023/09/25 11:36:34;;;;;;;5.32;1.70;;;21.90;99.90;;;;;;5064180;28;20077;-66
2023/09/25 11:39:12;;;;;;;4.05;1.67;;;22.00;99.90;;;;;;4998212;28;20120;-66
2023/09/25 11:41:38;;;;;;;3.35;1.05;;;22.00;99.90;;;;;;5067226;28;20099;-66
2023/09/25 11:44:04;;;;;;;1.98;1.05;;;22.00;99.90;;;;;;5067102;28;20480;-66
2023/09/25 11:46:29;;;;;;;2.25;1.20;;;22.00;99.90;;;;;;5065969;28;20030;-66
2023/09/25 11:48:55;;;;;;;2.20;1.10;;;22.00;99.90;;;;;;5065418;28;20087;-66
2023/09/25 11:51:21;;;;;;;3.05;1.50;;;22.00;99.90;;;;;;5054382;28;20075;-66
2023/09/25 11:53:48;;;;;;;2.08;1.25;;;22.00;99.90;;;;;;5066237;28;20050;-66
2023/09/25 11:56:14;;;;;;;1.85;1.20;;;21.90;99.90;;;;;;5068276;28;20040;-66
2023/09/25 11:58:39;;;;;;;5.30;1.30;;;21.90;99.90;;;;;;4999457;28;20030;-66
2023/09/25 12:01:05;;;;;;;3.55;1.05;;;22.00;99.90;;;;;;4998270;28;20037;-66
2023/09/25 12:03:38;;;;;;;3.00;0.85;;;22.10;99.90;;;;;;5059419;28;20462;-66
2023/09/25 12:06:07;;;;;;;5.40;1.83;;;22.10;99.90;;;;;;5001880;28;20038;-67
2023/09/25 12:08:33;;;;;;;1.63;1.23;;;22.00;99.90;;;;;;5062075;28;20045;-67
2023/09/25 12:10:59;;;;;;;2.45;1.23;;;21.90;99.90;;;;;;4995841;28;20086;-67
2023/09/25 12:13:25;;;;;;;3.63;1.00;;;21.90;99.90;;;;;;4993351;28;20117;-67
2023/09/25 12:15:51;;;;;;;3.60;1.35;;;22.00;99.90;;;;;;5072074;28;20405;-67
2023/09/25 12:18:16;;;;;;;7.25;1.65;;;21.90;99.90;;;;;;4998058;28;20581;-67
2023/09/25 12:20:43;;;;;;;6.78;1.60;;;21.90;99.90;;;;;;4998733;28;20093;-67
2023/09/25 12:23:09;;;;;;;1.45;0.85;;;21.80;99.90;;;;;;5068652;28;20045;-67
2023/09/25 12:25:35;;;;;;;2.47;1.23;;;21.70;99.90;;;;;;5065913;28;20034;-66
2023/09/25 12:28:00;;;;;;;2.13;0.85;;;21.70;99.90;;;;;;4998605;28;20045;-66
2023/09/25 12:30:26;;;;;;;5.20;1.42;;;21.70;99.90;;;;;;5067556;28;20095;-66
2023/09/25 12:32:52;;;;;;;2.17;1.20;;;21.80;99.90;;;;;;5063808;28;20381;-66
2023/09/25 12:35:18;;;;;;;3.42;1.48;;;21.80;99.90;;;;;;5060934;28;20039;-66
2023/09/25 12:37:46;;;;;;;3.20;1.27;;;21.80;99.90;;;;;;4998504;28;20039;-67
2023/09/25 12:40:15;;;;;;;3.75;1.48;;;21.90;99.90;;;;;;5063542;28;20046;-66
2023/09/25 12:42:41;;;;;;;4.53;1.30;;;22.00;99.90;;;;;;4999437;28;20046;-66
2023/09/25 12:45:08;;;;;;;4.50;1.23;;;21.90;99.90;;;;;;5069531;28;20042;-67
2023/09/25 12:47:34;;;;;;;8.32;2.08;;;21.90;99.90;;;;;;5001797;28;20052;-67
2023/09/25 12:49:59;;;;;;;3.58;1.83;;;21.70;99.90;;;;;;4999418;28;20033;-66
2023/09/25 12:52:26;;;;;;;2.92;1.52;;;21.60;99.90;;;;;;5067643;28;20058;-66